createdAt,value
2023-04-16T00:01:31.263Z,23.29
2023-04-16T00:04:01.216Z,23.30
2023-04-16T00:06:30.047Z,23.29
2023-04-16T00:08:58.464Z,23.29
2023-04-16T00:11:26.772Z,23.30
2023-04-16T00:13:55.150Z,23.29
2023-04-16T00:16:23.613Z,23.29
2023-04-16T00:18:52.150Z,23.28
2023-04-16T00:21:21.952Z,23.29
2023-04-16T00:23:50.408Z,23.27
2023-04-16T00:26:18.833Z,23.28
2023-04-16T00:28:47.606Z,23.28
2023-04-16T00:31:16.106Z,23.27
2023-04-16T00:33:44.762Z,23.26
2023-04-16T00:36:13.188Z,23.27
2023-04-16T00:38:42.987Z,23.27
2023-04-16T00:41:11.644Z,23.27
2023-04-16T00:43:39.980Z,23.27
2023-04-16T00:46:08.885Z,23.27
2023-04-16T00:48:37.354Z,23.27
2023-04-16T00:51:06.733Z,23.27
2023-04-16T00:53:35.624Z,23.27
2023-04-16T00:56:07.331Z,23.27
2023-04-16T00:58:36.170Z,23.26
2023-04-16T01:01:04.556Z,23.25
2023-04-16T01:03:39.544Z,23.25
2023-04-16T01:06:08.364Z,23.26
2023-04-16T01:08:36.953Z,23.27
2023-04-16T01:11:06.954Z,23.27
2023-04-16T01:13:39.376Z,23.25
2023-04-16T01:16:09.440Z,23.26
2023-04-16T01:18:37.941Z,23.25
2023-04-16T01:21:07.803Z,23.25
2023-04-16T01:23:36.486Z,23.26
2023-04-16T01:26:04.801Z,23.26
2023-04-16T01:28:33.212Z,23.25
2023-04-16T01:31:01.784Z,23.25
2023-04-16T01:33:30.200Z,23.25
2023-04-16T01:35:58.738Z,23.24
2023-04-16T01:38:28.474Z,23.25
2023-04-16T01:40:59.486Z,23.24
2023-04-16T01:43:27.964Z,23.24
2023-04-16T01:46:08.425Z,23.24
2023-04-16T01:48:36.823Z,23.25
2023-04-16T01:51:06.234Z,23.24
2023-04-16T01:53:37.081Z,23.24
2023-04-16T01:56:06.995Z,23.24
2023-04-16T01:58:35.378Z,23.24
2023-04-16T02:01:04.525Z,23.24
2023-04-16T02:03:33.243Z,23.24
2023-04-16T02:06:02.209Z,23.25
2023-04-16T02:08:30.785Z,23.24
2023-04-16T02:11:02.422Z,23.24
2023-04-16T02:13:30.790Z,23.24
2023-04-16T02:15:59.394Z,23.24
2023-04-16T02:18:27.941Z,23.24
2023-04-16T02:20:56.368Z,23.25
2023-04-16T02:23:24.715Z,23.24
2023-04-16T02:25:53.092Z,23.24
2023-04-16T02:28:22.775Z,23.24
2023-04-16T02:30:51.107Z,23.24
2023-04-16T02:33:20.305Z,23.24
2023-04-16T02:35:48.718Z,23.23
2023-04-16T02:38:17.096Z,23.23
2023-04-16T02:40:45.477Z,23.23
2023-04-16T02:43:13.830Z,23.24
2023-04-16T02:45:44.841Z,23.23
2023-04-16T02:48:13.472Z,23.24
2023-04-16T02:50:41.860Z,23.23
2023-04-16T02:53:10.769Z,23.23
2023-04-16T02:55:39.157Z,23.23
2023-04-16T02:58:07.460Z,23.23
2023-04-16T03:00:35.831Z,23.22
2023-04-16T03:03:05.937Z,23.21
2023-04-16T03:05:34.333Z,23.23
2023-04-16T03:08:02.732Z,23.22
2023-04-16T03:10:31.081Z,23.22
2023-04-16T03:12:59.472Z,23.22
2023-04-16T03:15:27.834Z,23.23
2023-04-16T03:17:56.334Z,23.21
2023-04-16T03:20:26.070Z,23.21
2023-04-16T03:22:54.390Z,23.22
2023-04-16T03:25:22.738Z,23.20
2023-04-16T03:27:51.094Z,23.21
2023-04-16T03:30:19.436Z,23.21
2023-04-16T03:32:47.909Z,23.22
2023-04-16T03:35:16.337Z,23.22
2023-04-16T03:37:46.102Z,23.21
2023-04-16T03:40:15.810Z,23.21
2023-04-16T03:42:44.229Z,23.21
2023-04-16T03:45:12.939Z,23.20
2023-04-16T03:47:41.347Z,23.20
2023-04-16T03:50:11.676Z,23.20
2023-04-16T03:52:41.001Z,23.20
2023-04-16T03:55:11.268Z,23.20
2023-04-16T03:57:39.664Z,23.20
2023-04-16T04:00:09.861Z,23.20
2023-04-16T04:02:38.400Z,23.21
2023-04-16T04:05:07.366Z,23.21
2023-04-16T04:07:35.824Z,23.20
2023-04-16T04:10:04.419Z,23.21
2023-04-16T04:12:34.121Z,23.20
2023-04-16T04:15:02.491Z,23.19
2023-04-16T04:17:30.901Z,23.19
2023-04-16T04:20:01.406Z,23.20
2023-04-16T04:22:30.789Z,23.20
2023-04-16T04:24:59.208Z,23.20
2023-04-16T04:27:27.584Z,23.18
2023-04-16T04:29:58.717Z,23.20
2023-04-16T04:32:27.082Z,23.20
2023-04-16T04:34:55.513Z,23.21
2023-04-16T04:37:23.812Z,23.20
2023-04-16T04:39:52.159Z,23.19
2023-04-16T04:42:21.035Z,23.20
2023-04-16T04:44:49.650Z,23.19
2023-04-16T04:47:19.435Z,23.19
2023-04-16T04:49:47.811Z,23.18
2023-04-16T04:52:16.258Z,23.20
2023-04-16T04:54:44.727Z,23.19
2023-04-16T04:57:13.147Z,23.19
2023-04-16T04:59:41.462Z,23.18
2023-04-16T05:02:09.812Z,23.19
2023-04-16T05:04:39.678Z,23.19
2023-04-16T05:07:08.157Z,23.19
2023-04-16T05:09:36.479Z,23.20
2023-04-16T05:12:05.063Z,23.20
2023-04-16T05:14:33.459Z,23.19
2023-04-16T05:17:02.125Z,23.20
2023-04-16T05:19:30.627Z,23.19
2023-04-16T05:22:02.313Z,23.20
2023-04-16T05:24:30.704Z,23.20
2023-04-16T05:26:59.378Z,23.20
2023-04-16T05:29:28.352Z,23.20
2023-04-16T05:31:56.760Z,23.21
2023-04-16T05:34:25.178Z,23.20
2023-04-16T05:36:53.538Z,23.21
2023-04-16T05:39:23.275Z,23.21
2023-04-16T05:41:51.657Z,23.22
2023-04-16T05:44:20.040Z,23.20
2023-04-16T05:46:48.431Z,23.21
2023-04-16T05:49:18.814Z,23.22
2023-04-16T05:51:47.402Z,23.22
2023-04-16T05:54:15.679Z,23.21
2023-04-16T05:56:45.499Z,23.23
2023-04-16T05:59:13.849Z,23.24
2023-04-16T06:01:42.799Z,23.25
2023-04-16T06:04:11.384Z,23.26
2023-04-16T06:06:40.291Z,23.29
2023-04-16T06:09:08.905Z,23.28
2023-04-16T06:11:37.444Z,23.30
2023-04-16T06:14:07.262Z,23.30
2023-04-16T06:16:35.659Z,23.29
2023-04-16T06:19:04.057Z,23.31
2023-04-16T06:21:33.510Z,23.34
2023-04-16T06:24:02.088Z,23.33
2023-04-16T06:26:30.415Z,23.35
2023-04-16T06:28:58.804Z,23.36
2023-04-16T06:31:28.577Z,23.36
2023-04-16T06:33:57.134Z,23.37
2023-04-16T06:36:27.618Z,23.36
2023-04-16T06:38:56.012Z,23.36
2023-04-16T06:41:25.801Z,23.38
2023-04-16T06:43:54.248Z,23.37
2023-04-16T06:46:22.838Z,23.40
2023-04-16T06:48:52.976Z,23.41
2023-04-16T06:51:21.305Z,23.40
2023-04-16T06:53:50.063Z,23.41
2023-04-16T06:56:18.466Z,23.39
2023-04-16T06:58:46.943Z,23.39
2023-04-16T07:01:15.408Z,23.40
2023-04-16T07:03:44.135Z,23.40
2023-04-16T07:06:14.104Z,23.42
2023-04-16T07:08:42.490Z,23.46
2023-04-16T07:11:11.029Z,23.45
2023-04-16T07:13:39.917Z,23.48
2023-04-16T07:16:08.838Z,23.54
2023-04-16T07:18:37.428Z,23.55
2023-04-16T07:21:06.019Z,23.58
2023-04-16T07:23:36.035Z,23.57
2023-04-16T07:26:04.502Z,23.58
2023-04-16T07:28:32.946Z,23.62
2023-04-16T07:31:01.451Z,23.62
2023-04-16T07:33:29.894Z,23.63
2023-04-16T07:35:58.279Z,23.63
2023-04-16T07:38:26.689Z,23.63
2023-04-16T07:40:56.562Z,23.64
2023-04-16T07:43:24.976Z,23.63
2023-04-16T07:45:53.362Z,23.64
2023-04-16T07:48:22.817Z,23.66
2023-04-16T07:50:54.391Z,23.64
2023-04-16T07:53:22.750Z,23.64
2023-04-16T07:55:51.230Z,23.63
2023-04-16T07:58:21.115Z,23.55
2023-04-16T08:00:50.844Z,23.51
2023-04-16T08:03:19.699Z,23.47
2023-04-16T08:05:48.193Z,23.43
2023-04-16T08:08:16.611Z,23.46
2023-04-16T08:10:45.152Z,23.47
2023-04-16T08:13:13.592Z,23.47
2023-04-16T08:15:43.457Z,23.48
2023-04-16T08:18:15.656Z,23.49
2023-04-16T08:20:44.111Z,23.50
2023-04-16T08:23:12.510Z,23.51
2023-04-16T08:25:41.042Z,23.51
2023-04-16T08:28:09.680Z,23.52
2023-04-16T08:30:38.109Z,23.53
2023-04-16T08:33:07.832Z,23.55
2023-04-16T08:35:36.350Z,23.57
2023-04-16T08:38:05.201Z,23.57
2023-04-16T08:40:33.602Z,23.58
2023-04-16T08:43:01.987Z,23.58
2023-04-16T08:45:30.402Z,23.58
2023-04-16T08:47:58.916Z,23.58
2023-04-16T08:50:29.164Z,23.57
2023-04-16T08:53:00.010Z,23.57
2023-04-16T08:55:33.600Z,23.59
2023-04-16T08:58:02.009Z,23.59
2023-04-16T09:00:30.387Z,23.56
2023-04-16T09:02:58.885Z,23.59
2023-04-16T09:05:28.955Z,23.60
2023-04-16T09:07:57.328Z,23.60
2023-04-16T09:10:25.964Z,23.58
2023-04-16T09:12:56.767Z,23.58
2023-04-16T09:15:25.700Z,23.60
2023-04-16T09:17:54.227Z,23.57
2023-04-16T09:20:22.737Z,23.56
2023-04-16T09:22:52.437Z,23.59
2023-04-16T09:25:22.206Z,23.58
2023-04-16T09:27:51.622Z,23.57
2023-04-16T09:30:24.059Z,23.56
2023-04-16T09:32:53.203Z,23.56
2023-04-16T09:35:21.696Z,23.58
2023-04-16T09:37:59.332Z,23.56
2023-04-16T09:40:30.651Z,23.54
2023-04-16T09:43:00.888Z,23.53
2023-04-16T09:45:34.037Z,23.53
2023-04-16T09:48:05.649Z,23.52
2023-04-16T09:50:34.212Z,23.57
2023-04-16T09:53:04.860Z,23.58
2023-04-16T09:55:33.946Z,23.59
2023-04-16T09:58:02.394Z,23.60
2023-04-16T10:00:31.456Z,23.61
2023-04-16T10:03:07.398Z,23.60
2023-04-16T10:05:36.672Z,23.60
2023-04-16T10:08:12.905Z,23.60
2023-04-16T10:10:41.667Z,23.61
2023-04-16T10:13:10.203Z,23.62
2023-04-16T10:15:38.569Z,23.64
2023-04-16T10:18:07.082Z,23.65
2023-04-16T10:20:35.481Z,23.66
2023-04-16T10:23:05.332Z,23.66
2023-04-16T10:25:34.216Z,23.64
2023-04-16T10:28:02.636Z,23.64
2023-04-16T10:30:31.050Z,23.66
2023-04-16T10:33:00.672Z,23.64
2023-04-16T10:35:29.219Z,23.65
2023-04-16T10:37:58.467Z,23.64
2023-04-16T10:40:29.549Z,23.66
2023-04-16T10:42:58.676Z,23.64
2023-04-16T10:45:33.641Z,23.65
2023-04-16T10:48:06.051Z,23.66
2023-04-16T10:50:37.654Z,23.66
2023-04-16T10:53:22.849Z,23.63
2023-04-16T10:56:14.005Z,23.66
2023-04-16T10:58:42.654Z,23.65
2023-04-16T11:01:14.474Z,23.67
2023-04-16T11:03:44.950Z,23.65
2023-04-16T11:06:16.616Z,23.70
2023-04-16T11:08:54.680Z,23.69
2023-04-16T11:11:25.000Z,23.68
2023-04-16T11:13:58.018Z,23.66
2023-04-16T11:16:29.629Z,23.69
2023-04-16T11:18:58.490Z,23.69
2023-04-16T11:21:29.573Z,23.70
2023-04-16T11:23:59.566Z,23.70
2023-04-16T11:26:30.853Z,23.69
2023-04-16T11:29:00.312Z,23.60
2023-04-16T11:31:28.746Z,23.56
2023-04-16T11:33:58.388Z,23.60
2023-04-16T11:36:27.937Z,23.62
2023-04-16T11:39:03.681Z,23.68
2023-04-16T11:41:33.612Z,23.67
2023-04-16T11:44:01.975Z,23.64
2023-04-16T11:46:40.661Z,23.64
2023-04-16T11:49:09.692Z,23.61
2023-04-16T11:51:42.166Z,23.58
2023-04-16T11:54:12.169Z,23.58
2023-04-16T11:56:46.925Z,23.60
2023-04-16T11:59:17.084Z,23.63
2023-04-16T12:01:49.237Z,23.61
2023-04-16T12:04:19.330Z,23.59
2023-04-16T12:07:10.102Z,23.58
2023-04-16T12:09:40.740Z,23.62
2023-04-16T12:12:30.834Z,23.59
2023-04-16T12:15:03.320Z,23.63
2023-04-16T12:17:33.606Z,23.60
2023-04-16T12:20:03.944Z,23.63
2023-04-16T12:22:36.607Z,23.64
2023-04-16T12:25:06.975Z,23.61
2023-04-16T12:27:47.778Z,23.57
2023-04-16T12:30:17.461Z,23.56
2023-04-16T12:32:47.840Z,23.55
2023-04-16T12:35:29.926Z,23.54
2023-04-16T12:37:58.359Z,23.52
2023-04-16T12:40:26.850Z,23.53
2023-04-16T12:42:56.630Z,23.55
2023-04-16T12:45:25.923Z,23.57
2023-04-16T12:47:54.349Z,23.59
2023-04-16T12:50:22.817Z,23.57
2023-04-16T12:52:51.222Z,23.55
2023-04-16T12:55:19.928Z,23.54
2023-04-16T12:57:49.003Z,23.54
2023-04-16T13:00:19.798Z,23.53
2023-04-16T13:02:48.370Z,23.54
2023-04-16T13:05:19.322Z,23.55
2023-04-16T13:07:47.904Z,23.56
2023-04-16T13:10:17.806Z,23.56
2023-04-16T13:12:46.705Z,23.56
2023-04-16T13:15:15.444Z,23.56
2023-04-16T13:17:45.399Z,23.56
2023-04-16T13:20:14.115Z,23.56
2023-04-16T13:22:42.674Z,23.56
2023-04-16T13:25:11.885Z,23.56
2023-04-16T13:27:40.519Z,23.57
2023-04-16T13:30:10.229Z,23.57
2023-04-16T13:32:38.776Z,23.57
2023-04-16T13:35:11.871Z,23.57
2023-04-16T13:37:40.438Z,23.58
2023-04-16T13:40:10.753Z,23.58
2023-04-16T13:42:39.330Z,23.56
2023-04-16T13:45:09.542Z,23.57
2023-04-16T13:47:38.082Z,23.58
2023-04-16T13:50:09.219Z,23.57
2023-04-16T13:52:37.902Z,23.58
2023-04-16T13:55:09.560Z,23.58
2023-04-16T13:57:38.044Z,23.61
2023-04-16T14:00:11.889Z,23.59
2023-04-16T14:02:42.833Z,23.59
2023-04-16T14:05:12.853Z,23.59
2023-04-16T14:07:41.396Z,23.58
2023-04-16T14:10:11.419Z,23.57
2023-04-16T14:12:40.162Z,23.58
2023-04-16T14:15:10.705Z,23.58
2023-04-16T14:17:39.219Z,23.56
2023-04-16T14:20:09.052Z,23.59
2023-04-16T14:22:38.915Z,23.57
2023-04-16T14:25:08.164Z,23.56
2023-04-16T14:27:36.595Z,23.58
2023-04-16T14:30:06.226Z,23.57
2023-04-16T14:32:34.682Z,23.56
2023-04-16T14:35:03.651Z,23.57
2023-04-16T14:37:32.358Z,23.57
2023-04-16T14:40:02.083Z,23.58
2023-04-16T14:42:30.497Z,23.56
2023-04-16T14:44:58.803Z,23.56
2023-04-16T14:47:27.280Z,23.55
2023-04-16T14:49:55.713Z,23.56
2023-04-16T14:52:24.228Z,23.56
2023-04-16T14:54:54.930Z,23.57
2023-04-16T14:57:24.795Z,23.55
2023-04-16T14:59:53.195Z,23.56
2023-04-16T15:02:21.933Z,23.57
2023-04-16T15:04:50.458Z,23.65
2023-04-16T15:07:22.172Z,23.60
2023-04-16T15:09:51.152Z,23.59
2023-04-16T15:12:19.935Z,23.58
2023-04-16T15:14:49.697Z,23.59
2023-04-16T15:17:18.029Z,23.62
2023-04-16T15:19:46.464Z,23.63
2023-04-16T15:22:15.361Z,23.63
2023-04-16T15:24:43.788Z,23.67
2023-04-16T15:27:13.944Z,23.69
2023-04-16T15:29:43.044Z,23.69
2023-04-16T15:32:12.835Z,23.68
2023-04-16T15:34:41.559Z,23.70
2023-04-16T15:37:09.949Z,23.71
2023-04-16T15:39:38.372Z,23.72
2023-04-16T15:42:07.634Z,23.74
2023-04-16T15:44:36.381Z,23.77
2023-04-16T15:47:06.455Z,23.77
2023-04-16T15:49:36.393Z,23.78
2023-04-16T15:52:05.127Z,23.78
2023-04-16T15:54:33.531Z,23.78
2023-04-16T15:57:01.951Z,23.78
2023-04-16T15:59:30.417Z,23.83
2023-04-16T16:01:58.949Z,23.81
2023-04-16T16:04:28.556Z,23.80
2023-04-16T16:06:58.450Z,23.80
2023-04-16T16:09:27.010Z,23.81
2023-04-16T16:11:55.456Z,23.80
2023-04-16T16:14:23.882Z,23.81
2023-04-16T16:16:52.305Z,23.81
2023-04-16T16:19:20.720Z,23.80
2023-04-16T16:21:49.457Z,23.80
2023-04-16T16:24:19.463Z,23.81
2023-04-16T16:26:47.871Z,23.80
2023-04-16T16:29:16.264Z,23.85
2023-04-16T16:31:44.703Z,23.84
2023-04-16T16:34:20.359Z,23.83
2023-04-16T16:36:49.916Z,23.81
2023-04-16T16:39:24.331Z,23.81
2023-04-16T16:41:53.252Z,23.80
2023-04-16T16:44:21.765Z,23.79
2023-04-16T16:46:50.238Z,23.78
2023-04-16T16:49:18.653Z,23.75
2023-04-16T16:51:47.085Z,23.74
2023-04-16T16:54:15.575Z,23.74
2023-04-16T16:56:45.295Z,23.73
2023-04-16T16:59:13.798Z,23.73
2023-04-16T17:01:42.250Z,23.73
2023-04-16T17:04:10.941Z,23.73
2023-04-16T17:06:40.061Z,23.72
2023-04-16T17:09:08.644Z,23.73
2023-04-16T17:11:37.169Z,23.72
2023-04-16T17:14:06.964Z,23.76
2023-04-16T17:16:35.483Z,23.77
2023-04-16T17:19:03.958Z,23.76
2023-04-16T17:21:33.323Z,23.72
2023-04-16T17:24:01.762Z,23.72
2023-04-16T17:26:30.264Z,23.70
2023-04-16T17:28:59.423Z,23.69
2023-04-16T17:31:29.311Z,23.69
2023-04-16T17:33:59.565Z,23.74
2023-04-16T17:36:28.137Z,23.72
2023-04-16T17:38:56.568Z,23.79
2023-04-16T17:41:24.937Z,23.81
2023-04-16T17:43:53.344Z,23.79
2023-04-16T17:46:21.948Z,23.82
2023-04-16T17:48:51.775Z,23.82
2023-04-16T17:51:20.249Z,23.80
2023-04-16T17:53:48.696Z,23.79
2023-04-16T17:56:17.153Z,23.76
2023-04-16T17:58:45.650Z,23.75
2023-04-16T18:01:14.119Z,23.72
2023-04-16T18:03:44.391Z,23.72
2023-04-16T18:06:14.304Z,23.73
2023-04-16T18:08:42.751Z,23.73
2023-04-16T18:11:11.415Z,23.75
2023-04-16T18:13:40.017Z,23.75
2023-04-16T18:16:14.806Z,23.74
2023-04-16T18:18:43.283Z,23.77
2023-04-16T18:21:13.101Z,23.78
2023-04-16T18:23:41.597Z,23.74
2023-04-16T18:26:11.064Z,23.74
2023-04-16T18:28:39.715Z,23.75
2023-04-16T18:31:08.206Z,23.76
2023-04-16T18:33:50.027Z,23.73
2023-04-16T18:36:24.931Z,23.73
2023-04-16T18:39:01.596Z,23.75
2023-04-16T18:41:31.213Z,23.79
2023-04-16T18:43:59.864Z,23.74
2023-04-16T18:46:28.496Z,23.73
2023-04-16T18:48:58.309Z,23.74
2023-04-16T18:51:28.360Z,23.72
2023-04-16T18:53:57.045Z,23.72
2023-04-16T18:56:25.560Z,23.71
2023-04-16T18:58:53.981Z,23.71
2023-04-16T19:01:22.584Z,23.72
2023-04-16T19:03:51.105Z,23.73
2023-04-16T19:06:20.652Z,23.73
2023-04-16T19:08:50.467Z,23.73
2023-04-16T19:11:18.986Z,23.72
2023-04-16T19:13:47.402Z,23.73
2023-04-16T19:16:15.962Z,23.73
2023-04-16T19:18:44.418Z,23.73
2023-04-16T19:21:13.023Z,23.73
2023-04-16T19:23:41.403Z,23.73
2023-04-16T19:26:11.223Z,23.73
2023-04-16T19:28:39.816Z,23.73
2023-04-16T19:31:08.258Z,23.73
2023-04-16T19:33:36.725Z,23.70
2023-04-16T19:36:05.592Z,23.70
2023-04-16T19:38:33.986Z,23.70
2023-04-16T19:41:02.494Z,23.70
2023-04-16T19:43:32.422Z,23.68
2023-04-16T19:46:01.178Z,23.69
2023-04-16T19:48:30.469Z,23.77
2023-04-16T19:51:02.843Z,23.78
2023-04-16T19:53:31.348Z,23.78
2023-04-16T19:55:59.788Z,23.78
2023-04-16T19:58:28.234Z,23.78
2023-04-16T20:00:58.039Z,23.74
2023-04-16T20:03:26.526Z,23.72
2023-04-16T20:05:54.963Z,23.70
2023-04-16T20:08:23.399Z,23.68
2023-04-16T20:10:54.356Z,23.67
2023-04-16T20:13:22.785Z,23.68
2023-04-16T20:15:53.918Z,23.69
2023-04-16T20:18:23.710Z,23.68
2023-04-16T20:20:52.101Z,23.64
2023-04-16T20:23:20.534Z,23.63
2023-04-16T20:25:49.156Z,23.61
2023-04-16T20:28:21.392Z,23.60
2023-04-16T20:30:50.983Z,23.64
2023-04-16T20:33:19.526Z,23.67
2023-04-16T20:35:50.983Z,23.70
2023-04-16T20:38:23.712Z,23.70
2023-04-16T20:40:58.196Z,23.68
2023-04-16T20:43:29.563Z,23.69
2023-04-16T20:45:58.171Z,23.70
2023-04-16T20:48:26.603Z,23.69
2023-04-16T20:51:01.062Z,23.69
2023-04-16T20:53:29.568Z,23.70
2023-04-16T20:55:57.984Z,23.70
2023-04-16T20:58:26.376Z,23.70
2023-04-16T21:00:55.175Z,23.70
2023-04-16T21:03:23.763Z,23.69
2023-04-16T21:05:53.272Z,23.70
2023-04-16T21:08:23.204Z,23.70
2023-04-16T21:10:51.679Z,23.70
2023-04-16T21:13:20.796Z,23.71
2023-04-16T21:15:49.498Z,23.70
2023-04-16T21:18:18.634Z,23.70
2023-04-16T21:20:47.006Z,23.74
2023-04-16T21:23:15.587Z,23.73
2023-04-16T21:25:45.382Z,23.74
2023-04-16T21:28:13.723Z,23.73
2023-04-16T21:30:42.540Z,23.72
2023-04-16T21:33:12.932Z,23.74
2023-04-16T21:35:41.269Z,23.72
2023-04-16T21:38:09.668Z,23.71
2023-04-16T21:40:38.109Z,23.70
2023-04-16T21:43:07.926Z,23.71
2023-04-16T21:45:36.327Z,23.69
2023-04-16T21:48:05.048Z,23.70
2023-04-16T21:50:33.458Z,23.70
2023-04-16T21:53:06.248Z,23.69
2023-04-16T21:55:35.158Z,23.69
2023-04-16T21:58:04.046Z,23.68
2023-04-16T22:00:33.883Z,23.69
2023-04-16T22:03:04.387Z,23.69
2023-04-16T22:05:33.302Z,23.69
2023-04-16T22:08:10.842Z,23.68
2023-04-16T22:10:49.672Z,23.68
2023-04-16T22:13:18.225Z,23.67
2023-04-16T22:15:47.975Z,23.67
2023-04-16T22:18:16.432Z,23.66
2023-04-16T22:20:50.842Z,23.68
2023-04-16T22:23:19.228Z,23.68
2023-04-16T22:25:47.772Z,23.67
2023-04-16T22:28:16.131Z,23.67
2023-04-16T22:30:44.479Z,23.67
2023-04-16T22:33:14.245Z,23.66
2023-04-16T22:35:42.619Z,23.65
2023-04-16T22:38:11.223Z,23.64
2023-04-16T22:40:39.557Z,23.64
2023-04-16T22:43:07.909Z,23.64
2023-04-16T22:45:37.571Z,23.64
2023-04-16T22:48:06.358Z,23.66
2023-04-16T22:50:36.176Z,23.65
2023-04-16T22:53:04.602Z,23.64
2023-04-16T22:55:33.001Z,23.64
2023-04-16T22:58:01.747Z,23.64
2023-04-16T23:00:30.193Z,23.64
2023-04-16T23:02:58.704Z,23.64
2023-04-16T23:05:27.329Z,23.66
2023-04-16T23:07:57.059Z,23.67
2023-04-16T23:10:25.365Z,23.70
2023-04-16T23:12:53.801Z,23.69
2023-04-16T23:15:22.204Z,23.68
2023-04-16T23:17:50.608Z,23.65
2023-04-16T23:20:19.159Z,23.65
2023-04-16T23:22:47.663Z,23.65
2023-04-16T23:25:18.149Z,23.65
2023-04-16T23:27:46.461Z,23.64
2023-04-16T23:30:15.866Z,23.64
2023-04-16T23:32:44.337Z,23.64
2023-04-16T23:35:12.751Z,23.65
2023-04-16T23:37:41.771Z,23.64
2023-04-16T23:40:11.946Z,23.63
2023-04-16T23:42:41.736Z,23.63
2023-04-16T23:45:11.765Z,23.63
2023-04-16T23:47:40.275Z,23.63
2023-04-16T23:50:09.390Z,23.63
2023-04-16T23:52:37.774Z,23.63
2023-04-16T23:55:06.974Z,23.62
2023-04-16T23:57:35.346Z,23.62
